Time;durP1;ratioP1;P1;durP2;ratioP2;P2;SDS_P1;SDS_P2;PMS_P1;PMS_P2;Temp;Humidity;BMP_temperature;BMP_pressure;BME280_temperature;BME280_humidity;BME280_pressure;Samples;Min_cycle;Max_cycle;Signal;HPM_P1;HPM_P2
2022/03/01 00:01:46;;;;;;;67.95;51.65;;;16.40;48.20;;;;;;4991680;28;90459;-78
2022/03/01 00:04:11;;;;;;;64.82;50.90;;;16.40;48.30;;;;;;4993671;28;90393;-78
2022/03/01 00:06:37;;;;;;;65.10;51.00;;;16.40;48.30;;;;;;4993126;28;91284;-78
2022/03/01 00:09:03;;;;;;;65.53;51.17;;;16.30;48.30;;;;;;4989127;28;90818;-77
2022/03/01 00:11:29;;;;;;;67.53;51.80;;;16.30;48.50;;;;;;4992040;28;89797;-77
2022/03/01 00:13:55;;;;;;;65.90;51.72;;;16.30;48.60;;;;;;4989893;28;91400;-78
2022/03/01 00:16:20;;;;;;;67.03;52.28;;;16.30;48.40;;;;;;5000898;28;91132;-78
2022/03/01 00:18:46;;;;;;;65.95;51.72;;;16.30;48.30;;;;;;4982985;28;90395;-78
2022/03/01 00:21:12;;;;;;;66.78;52.25;;;16.40;48.10;;;;;;4993227;28;98723;-77
2022/03/01 00:23:38;;;;;;;65.32;51.58;;;16.40;48.50;;;;;;4990802;28;89769;-78
2022/03/01 00:26:04;;;;;;;68.35;52.58;;;16.50;48.20;;;;;;5008364;27;92077;-78
2022/03/01 00:28:30;;;;;;;65.25;51.55;;;16.50;48.20;;;;;;4995862;28;94229;-78
2022/03/01 00:30:56;;;;;;;67.40;51.88;;;16.50;48.10;;;;;;4998188;28;89025;-78
2022/03/01 00:33:22;;;;;;;65.40;51.55;;;16.60;47.90;;;;;;4983774;28;91197;-77
2022/03/01 00:35:48;;;;;;;65.38;51.42;;;16.60;48.00;;;;;;4992904;28;91327;-78
2022/03/01 00:38:13;;;;;;;67.57;52.10;;;16.60;47.80;;;;;;4989990;28;92961;-78
2022/03/01 00:40:39;;;;;;;65.90;51.47;;;16.70;47.70;;;;;;4993697;28;91913;-78
2022/03/01 00:43:05;;;;;;;67.53;51.72;;;16.70;47.70;;;;;;4992005;28;94524;-78
2022/03/01 00:45:30;;;;;;;66.53;51.97;;;16.70;47.70;;;;;;4996178;28;90977;-78
2022/03/01 00:47:56;;;;;;;65.57;51.67;;;16.70;47.70;;;;;;4984854;28;90746;-78
2022/03/01 00:50:22;;;;;;;66.10;51.50;;;16.70;47.70;;;;;;5001797;28;90477;-78
2022/03/01 00:52:47;;;;;;;65.45;51.10;;;16.70;47.50;;;;;;4988873;28;90876;-77
2022/03/01 00:55:13;;;;;;;66.28;51.42;;;16.80;47.50;;;;;;4997441;28;90619;-78
2022/03/01 00:57:39;;;;;;;65.85;52.05;;;16.80;47.40;;;;;;4986133;28;90868;-78
2022/03/01 01:00:06;;;;;;;67.53;52.47;;;16.80;47.40;;;;;;4992215;28;89987;-79
2022/03/01 01:02:32;;;;;;;67.50;52.72;;;16.80;47.60;;;;;;4985773;28;90732;-77
2022/03/01 01:04:57;;;;;;;66.15;51.40;;;16.80;47.50;;;;;;4983441;28;92621;-78
2022/03/01 01:07:25;;;;;;;65.75;51.22;;;16.80;47.40;;;;;;4990895;28;89545;-78
2022/03/01 01:09:51;;;;;;;65.38;51.15;;;16.80;47.40;;;;;;4985897;28;90640;-78
2022/03/01 01:12:17;;;;;;;65.22;51.22;;;16.80;48.00;;;;;;4993185;28;89907;-77
2022/03/01 01:14:43;;;;;;;65.25;51.50;;;16.80;47.50;;;;;;4989292;28;92494;-78
2022/03/01 01:17:09;;;;;;;64.38;51.25;;;16.80;47.50;;;;;;4994608;28;91379;-77
2022/03/01 01:19:34;;;;;;;64.78;51.05;;;16.80;47.60;;;;;;4988228;28;89621;-78
2022/03/01 01:24:44;;;;;;;66.60;51.75;;;16.80;47.80;;;;;;4989637;28;96407;-77
2022/03/01 01:27:11;;;;;;;65.45;51.33;;;16.80;47.70;;;;;;4995012;28;91724;-77
2022/03/01 01:29:36;;;;;;;64.90;50.92;;;16.80;47.70;;;;;;4986784;28;95333;-77
2022/03/01 01:32:02;;;;;;;66.18;50.95;;;16.80;47.80;;;;;;4989472;28;92981;-78
2022/03/01 01:34:28;;;;;;;66.95;51.63;;;16.80;47.90;;;;;;4988711;28;92137;-78
2022/03/01 01:36:53;;;;;;;65.70;51.20;;;16.70;47.70;;;;;;4988407;28;90400;-77
2022/03/01 01:39:19;;;;;;;65.25;51.13;;;16.70;47.70;;;;;;4990460;28;90369;-78
2022/03/01 01:41:45;;;;;;;66.55;52.00;;;16.70;47.80;;;;;;4993156;28;90965;-78
2022/03/01 01:44:11;;;;;;;66.10;51.45;;;16.70;47.80;;;;;;4981962;28;89033;-77
2022/03/01 01:46:36;;;;;;;66.00;51.45;;;16.60;47.60;;;;;;4991751;28;90185;-77
2022/03/01 01:49:02;;;;;;;66.10;51.17;;;16.60;47.80;;;;;;4989690;28;90457;-77
2022/03/01 01:51:28;;;;;;;65.97;50.95;;;16.60;47.70;;;;;;4996396;28;91061;-77
2022/03/01 01:53:53;;;;;;;64.35;51.00;;;16.60;47.80;;;;;;4990390;28;92388;-77
2022/03/01 01:56:19;;;;;;;66.03;51.38;;;16.50;47.90;;;;;;4990740;28;91329;-78
2022/03/01 01:58:45;;;;;;;64.65;51.13;;;16.50;48.00;;;;;;4982936;28;89916;-78
2022/03/01 02:01:10;;;;;;;64.30;50.63;;;16.50;47.90;;;;;;4994049;28;90209;-78
2022/03/01 02:03:36;;;;;;;64.15;50.92;;;16.50;47.90;;;;;;4990564;28;92035;-78
2022/03/01 02:06:03;;;;;;;66.40;51.60;;;16.40;47.90;;;;;;4995231;28;89599;-78
2022/03/01 02:08:30;;;;;;;64.65;50.72;;;16.40;47.90;;;;;;4997740;28;89285;-78
2022/03/01 02:10:56;;;;;;;64.93;51.20;;;16.40;48.10;;;;;;4995122;28;93088;-77
2022/03/01 02:13:22;;;;;;;65.28;51.40;;;16.30;48.10;;;;;;4991612;28;91190;-77
2022/03/01 02:15:48;;;;;;;65.10;51.10;;;16.40;48.30;;;;;;4980463;28;91339;-78
2022/03/01 02:18:15;;;;;;;65.43;51.20;;;16.30;48.00;;;;;;4993148;28;90183;-77
2022/03/01 02:20:40;;;;;;;66.32;51.97;;;16.30;48.20;;;;;;4988881;28;90172;-78
2022/03/01 02:23:06;;;;;;;67.55;52.22;;;16.30;48.00;;;;;;4993880;28;89485;-77
2022/03/01 02:25:32;;;;;;;65.32;51.58;;;16.40;48.00;;;;;;4990096;28;91093;-77
2022/03/01 02:27:57;;;;;;;66.22;52.20;;;16.40;47.90;;;;;;4995656;28;89922;-78
2022/03/01 02:30:23;;;;;;;65.53;51.80;;;16.40;47.90;;;;;;4986716;28;89541;-78
2022/03/01 02:32:49;;;;;;;66.32;51.47;;;16.40;47.90;;;;;;4997480;28;91397;-77
2022/03/01 02:35:15;;;;;;;65.38;51.92;;;16.40;47.70;;;;;;4978411;28;90014;-77
2022/03/01 02:37:42;;;;;;;64.97;51.30;;;16.40;47.70;;;;;;4992544;28;90507;-76
2022/03/01 02:40:08;;;;;;;64.28;50.70;;;16.50;47.80;;;;;;5002329;27;92949;-77
2022/03/01 02:42:38;;;;;;;66.55;51.70;;;16.50;47.80;;;;;;4992585;28;90019;-77
2022/03/01 02:45:07;;;;;;;65.70;51.45;;;16.50;47.90;;;;;;4995617;28;89818;-76
2022/03/01 02:47:33;;;;;;;66.05;51.78;;;16.60;48.00;;;;;;4996221;28;89790;-76
2022/03/01 02:49:59;;;;;;;65.63;51.00;;;16.50;47.80;;;;;;4991657;28;90643;-77
2022/03/01 02:52:25;;;;;;;66.63;51.63;;;16.50;47.70;;;;;;5005622;27;91563;-76
2022/03/01 02:54:51;;;;;;;65.45;51.08;;;16.60;47.90;;;;;;4995063;28;91400;-76
2022/03/01 02:57:17;;;;;;;65.15;51.42;;;16.60;47.80;;;;;;4998510;28;91547;-77
2022/03/01 02:59:42;;;;;;;63.47;50.30;;;16.60;47.80;;;;;;4998037;28;90008;-76
2022/03/01 03:02:09;;;;;;;65.40;50.55;;;16.60;47.90;;;;;;4996460;28;89760;-77
2022/03/01 03:04:35;;;;;;;64.97;51.05;;;16.60;48.00;;;;;;4997579;28;91283;-77
2022/03/01 03:07:00;;;;;;;66.38;51.60;;;16.50;47.90;;;;;;4995469;28;89903;-77
2022/03/01 03:09:26;;;;;;;65.90;51.45;;;16.50;47.80;;;;;;4984703;28;90637;-77
2022/03/01 03:11:52;;;;;;;64.38;50.60;;;16.50;47.90;;;;;;4999346;28;90348;-77
2022/03/01 03:14:19;;;;;;;66.50;51.65;;;16.50;47.90;;;;;;4989587;28;90028;-77
2022/03/01 03:16:44;;;;;;;64.15;51.03;;;16.50;47.90;;;;;;5000145;28;90529;-77
2022/03/01 03:19:11;;;;;;;64.38;51.13;;;16.50;47.90;;;;;;4999492;28;92197;-77
2022/03/01 03:21:37;;;;;;;64.20;50.83;;;16.50;47.90;;;;;;4995351;28;89786;-77
2022/03/01 03:24:02;;;;;;;64.25;50.58;;;16.40;47.80;;;;;;4994179;28;89598;-77
2022/03/01 03:26:28;;;;;;;63.03;50.28;;;16.40;48.00;;;;;;4993608;28;90956;-77
2022/03/01 03:28:54;;;;;;;64.70;50.85;;;16.40;48.00;;;;;;4993854;28;92717;-77
2022/03/01 03:31:19;;;;;;;64.18;50.75;;;16.40;47.90;;;;;;4983764;28;90854;-77
2022/03/01 03:33:45;;;;;;;64.75;51.15;;;16.40;47.90;;;;;;4991997;28;91532;-77
2022/03/01 03:36:10;;;;;;;64.40;51.08;;;16.30;47.70;;;;;;4997221;28;90645;-77
2022/03/01 03:38:36;;;;;;;64.35;51.28;;;16.30;47.70;;;;;;4995165;28;92827;-77
2022/03/01 03:41:02;;;;;;;66.25;51.85;;;16.30;47.70;;;;;;4997709;28;92320;-78
2022/03/01 03:43:27;;;;;;;64.45;50.63;;;16.30;47.60;;;;;;4996907;28;90060;-77
2022/03/01 03:45:53;;;;;;;65.28;50.92;;;16.40;47.70;;;;;;4984732;28;90264;-77
2022/03/01 03:48:19;;;;;;;63.85;50.75;;;16.40;47.80;;;;;;4994284;28;91181;-77
2022/03/01 03:50:44;;;;;;;64.82;51.38;;;16.40;47.50;;;;;;4998226;28;90722;-77
2022/03/01 03:53:10;;;;;;;64.93;51.47;;;16.40;48.00;;;;;;4991854;28;91401;-77
2022/03/01 03:55:35;;;;;;;64.30;51.00;;;16.40;48.00;;;;;;4998625;28;91285;-77
2022/03/01 03:58:01;;;;;;;64.55;50.83;;;16.50;47.60;;;;;;4999164;28;90842;-77
2022/03/01 04:00:27;;;;;;;65.75;51.22;;;16.50;47.60;;;;;;4983456;28;92612;-77
2022/03/01 04:02:55;;;;;;;64.00;51.05;;;16.50;47.60;;;;;;4995557;28;89705;-77
2022/03/01 04:05:21;;;;;;;65.70;51.35;;;16.50;47.60;;;;;;5000054;28;89580;-77
2022/03/01 04:07:48;;;;;;;65.97;51.60;;;16.60;47.40;;;;;;4997016;28;89598;-77
2022/03/01 04:10:15;;;;;;;65.88;51.13;;;16.60;47.90;;;;;;4996591;28;90868;-77
2022/03/01 04:12:41;;;;;;;64.40;50.83;;;16.60;47.50;;;;;;4996934;28;90724;-77
2022/03/01 04:15:08;;;;;;;65.00;50.85;;;16.60;47.50;;;;;;4990821;28;90689;-77
2022/03/01 04:17:34;;;;;;;64.70;51.25;;;16.60;47.40;;;;;;4993536;28;92469;-77
2022/03/01 04:19:59;;;;;;;63.80;50.45;;;16.60;47.10;;;;;;4997040;28;93596;-76
2022/03/01 04:22:26;;;;;;;65.07;50.55;;;16.60;47.30;;;;;;5006642;27;90655;-76
2022/03/01 04:24:52;;;;;;;63.60;50.03;;;16.60;47.30;;;;;;4988621;28;96879;-75
2022/03/01 04:27:17;;;;;;;73.80;51.25;;;16.60;47.50;;;;;;4992033;28;93029;-75
2022/03/01 04:29:44;;;;;;;71.78;51.80;;;16.60;47.60;;;;;;4991069;28;89879;-77
2022/03/01 04:32:10;;;;;;;72.88;51.80;;;16.60;47.70;;;;;;4990770;28;91473;-77
2022/03/01 04:34:36;;;;;;;71.80;52.22;;;16.60;47.60;;;;;;4987007;28;89892;-77
2022/03/01 04:37:02;;;;;;;70.82;51.70;;;16.60;47.60;;;;;;4991060;28;90146;-74
2022/03/01 04:39:29;;;;;;;70.65;51.08;;;16.60;47.70;;;;;;4992374;28;90074;-76
2022/03/01 04:41:55;;;;;;;70.55;50.83;;;16.60;47.60;;;;;;4974679;28;92753;-77
2022/03/01 04:44:21;;;;;;;69.82;51.17;;;16.60;47.90;;;;;;4995916;28;89772;-77
2022/03/01 04:46:47;;;;;;;70.55;51.58;;;16.60;47.70;;;;;;4991933;28;91441;-77
2022/03/01 04:49:13;;;;;;;72.80;51.47;;;16.60;47.50;;;;;;4998910;28;89694;-76
2022/03/01 04:51:39;;;;;;;68.97;51.03;;;16.60;47.60;;;;;;5009938;27;89847;-77
2022/03/01 04:54:05;;;;;;;68.68;50.88;;;16.50;47.50;;;;;;4994250;28;90275;-77
2022/03/01 04:56:31;;;;;;;72.13;52.50;;;16.50;47.60;;;;;;4990322;28;92301;-77
2022/03/01 04:58:57;;;;;;;70.63;51.72;;;16.50;47.90;;;;;;4995896;28;89204;-77
2022/03/01 05:01:22;;;;;;;71.82;51.80;;;16.40;47.80;;;;;;4992484;28;89980;-76
2022/03/01 05:03:48;;;;;;;69.88;51.63;;;16.40;47.80;;;;;;4998141;28;89923;-77
2022/03/01 05:06:14;;;;;;;69.32;51.38;;;16.40;47.90;;;;;;4993204;28;91469;-77
2022/03/01 05:08:39;;;;;;;70.72;51.55;;;16.50;48.10;;;;;;4997969;28;90918;-77
2022/03/01 05:11:05;;;;;;;68.25;50.80;;;16.50;48.10;;;;;;4986116;28;90535;-76
2022/03/01 05:13:31;;;;;;;69.38;51.55;;;16.60;48.00;;;;;;5000156;28;90733;-77
2022/03/01 05:15:56;;;;;;;69.47;51.17;;;16.60;47.80;;;;;;4991880;28;89916;-77
2022/03/01 05:18:22;;;;;;;69.75;50.50;;;16.70;48.10;;;;;;4994999;28;90496;-77
2022/03/01 05:20:48;;;;;;;69.97;51.63;;;16.80;47.70;;;;;;5012771;28;90506;-78
2022/03/01 05:23:15;;;;;;;71.55;51.92;;;16.80;47.60;;;;;;4995322;28;90062;-77
2022/03/01 05:25:40;;;;;;;70.25;51.15;;;16.90;47.80;;;;;;4985912;28;91336;-77
2022/03/01 05:28:06;;;;;;;71.72;51.45;;;17.00;47.60;;;;;;4997850;28;90093;-78
2022/03/01 05:30:32;;;;;;;69.22;51.42;;;17.10;47.50;;;;;;4992753;28;91501;-77
2022/03/01 05:32:57;;;;;;;69.82;51.50;;;17.10;47.20;;;;;;4995992;28;89839;-77
2022/03/01 05:35:29;;;;;;;70.47;51.92;;;17.20;47.10;;;;;;4990233;28;90118;-77
2022/03/01 05:37:57;;;;;;;68.75;51.45;;;17.20;47.10;;;;;;4989066;28;92702;-77
2022/03/01 05:40:25;;;;;;;68.43;50.90;;;17.20;46.90;;;;;;4993369;28;90402;-77
2022/03/01 05:42:52;;;;;;;68.63;51.67;;;17.30;46.80;;;;;;4990057;28;92001;-77
2022/03/01 05:45:18;;;;;;;68.63;51.30;;;17.30;46.90;;;;;;4997621;28;91792;-80
2022/03/01 05:47:44;;;;;;;70.25;51.75;;;17.30;46.80;;;;;;5001420;28;90118;-77
2022/03/01 05:50:14;;;;;;;69.47;51.63;;;17.30;46.60;;;;;;4992801;28;89732;-77
2022/03/01 05:52:40;;;;;;;69.72;51.53;;;17.30;46.70;;;;;;4983059;28;92415;-79
2022/03/01 05:55:08;;;;;;;68.35;51.15;;;17.30;46.70;;;;;;4999869;28;91516;-79
2022/03/01 05:57:34;;;;;;;68.72;51.25;;;17.40;46.40;;;;;;4992369;28;92131;-79
2022/03/01 06:00:00;;;;;;;69.97;51.97;;;17.30;46.50;;;;;;5001756;28;89719;-79
2022/03/01 06:02:26;;;;;;;69.35;51.20;;;17.30;46.50;;;;;;4997777;28;89997;-78
2022/03/01 06:04:52;;;;;;;68.78;51.47;;;17.30;47.10;;;;;;4997440;28;90539;-78
2022/03/01 06:07:19;;;;;;;70.82;51.58;;;17.30;46.60;;;;;;4989035;28;91713;-78
2022/03/01 06:09:44;;;;;;;69.57;51.38;;;17.30;46.60;;;;;;4993688;28;89687;-77
2022/03/01 06:12:10;;;;;;;69.22;51.55;;;17.30;46.60;;;;;;4988758;28;88820;-78
2022/03/01 06:14:36;;;;;;;69.70;51.35;;;17.30;46.60;;;;;;4996103;28;89915;-78
2022/03/01 06:17:02;;;;;;;67.30;50.10;;;17.30;46.60;;;;;;4997899;28;92005;-78
2022/03/01 06:19:28;;;;;;;68.35;51.13;;;17.30;46.80;;;;;;5009208;28;90662;-77
2022/03/01 06:21:53;;;;;;;68.75;51.13;;;17.30;46.60;;;;;;4985481;28;91600;-77
2022/03/01 06:24:19;;;;;;;68.55;51.45;;;17.20;46.50;;;;;;4988741;28;90180;-72
2022/03/01 06:26:45;;;;;;;67.93;50.85;;;17.30;46.60;;;;;;4993364;28;89861;-74
2022/03/01 06:29:11;;;;;;;67.40;51.00;;;17.20;46.40;;;;;;5015400;28;90317;-74
2022/03/01 06:31:36;;;;;;;68.57;51.35;;;17.20;46.30;;;;;;4988048;28;89587;-72
2022/03/01 06:34:02;;;;;;;66.78;50.78;;;17.20;46.30;;;;;;4995893;28;90651;-73
2022/03/01 06:36:28;;;;;;;68.82;51.88;;;17.10;46.40;;;;;;4988832;28;90847;-73
2022/03/01 06:38:54;;;;;;;68.07;51.22;;;17.10;46.50;;;;;;4991042;28;89771;-74
2022/03/01 06:41:19;;;;;;;70.45;50.90;;;17.10;46.50;;;;;;4996835;28;89541;-73
2022/03/01 06:43:45;;;;;;;68.00;50.88;;;17.00;46.40;;;;;;4999016;28;92698;-72
2022/03/01 06:46:11;;;;;;;68.43;51.15;;;17.00;46.60;;;;;;5004738;28;91168;-73
2022/03/01 06:48:37;;;;;;;67.18;50.72;;;17.00;46.50;;;;;;4993215;28;90066;-74
2022/03/01 06:51:03;;;;;;;68.68;51.28;;;16.90;46.60;;;;;;5005889;28;89463;-74
2022/03/01 06:53:29;;;;;;;68.25;51.20;;;16.90;46.70;;;;;;5000179;28;91971;-74
2022/03/01 06:55:55;;;;;;;68.97;51.95;;;16.90;46.80;;;;;;4981591;28;91077;-73
2022/03/01 06:58:21;;;;;;;69.38;51.22;;;16.80;46.80;;;;;;4993553;28;90474;-74
2022/03/01 07:00:47;;;;;;;68.68;51.42;;;16.80;46.70;;;;;;4993044;28;88776;-74
2022/03/01 07:03:12;;;;;;;67.90;50.55;;;16.80;46.80;;;;;;4978734;28;89998;-73
2022/03/01 07:05:38;;;;;;;67.30;50.92;;;16.70;47.00;;;;;;4990650;28;91565;-73
2022/03/01 07:08:05;;;;;;;66.60;50.83;;;16.70;47.00;;;;;;4969465;28;91354;-74
2022/03/01 07:10:32;;;;;;;68.43;51.63;;;16.70;47.00;;;;;;4992497;28;89853;-73
2022/03/01 07:12:57;;;;;;;69.05;51.38;;;16.70;47.00;;;;;;4989547;28;91503;-74
2022/03/01 07:15:23;;;;;;;67.70;50.83;;;16.70;47.30;;;;;;4994006;28;90951;-73
2022/03/01 07:17:49;;;;;;;67.90;51.10;;;16.60;47.00;;;;;;4971084;28;95092;-73
2022/03/01 07:20:15;;;;;;;69.35;50.65;;;16.60;47.10;;;;;;4991370;28;90275;-73
2022/03/01 07:22:41;;;;;;;67.40;50.60;;;16.60;47.10;;;;;;4981049;28;90355;-73
2022/03/01 07:25:08;;;;;;;69.57;51.65;;;16.60;47.30;;;;;;4990619;28;92592;-73
2022/03/01 07:27:33;;;;;;;66.93;50.80;;;16.60;47.40;;;;;;4985055;28;89833;-74
2022/03/01 07:30:00;;;;;;;68.10;51.53;;;16.60;47.30;;;;;;4987607;28;89781;-73
2022/03/01 07:32:26;;;;;;;67.70;50.72;;;16.60;47.40;;;;;;4984286;28;92355;-73
2022/03/01 07:34:51;;;;;;;66.97;50.50;;;16.60;47.30;;;;;;4988742;28;90876;-73
2022/03/01 07:37:17;;;;;;;67.05;50.75;;;16.50;47.30;;;;;;4989542;28;90419;-73
2022/03/01 07:39:43;;;;;;;67.55;50.55;;;16.60;47.50;;;;;;4991485;28;89617;-73
2022/03/01 07:42:09;;;;;;;69.97;51.53;;;16.50;47.40;;;;;;4992588;28;92628;-72
2022/03/01 07:44:37;;;;;;;67.32;50.53;;;16.50;47.40;;;;;;4993884;28;89805;-73
2022/03/01 07:47:05;;;;;;;68.38;51.13;;;16.50;47.40;;;;;;4993535;28;89610;-73
2022/03/01 07:49:31;;;;;;;68.18;51.17;;;16.50;47.50;;;;;;4985703;28;89244;-73
2022/03/01 07:51:56;;;;;;;67.18;50.25;;;16.50;47.50;;;;;;4990787;28;90549;-73
2022/03/01 07:54:22;;;;;;;67.22;51.22;;;16.50;47.40;;;;;;4989786;28;92958;-73
2022/03/01 07:56:47;;;;;;;68.57;51.08;;;16.50;47.40;;;;;;4995312;28;90513;-73
2022/03/01 07:59:13;;;;;;;66.95;50.67;;;16.50;47.40;;;;;;4980463;28;90562;-73
2022/03/01 08:01:39;;;;;;;68.68;51.42;;;16.40;47.50;;;;;;4995025;28;91805;-73
2022/03/01 08:04:04;;;;;;;67.50;51.20;;;16.40;47.50;;;;;;4975692;28;90705;-73
2022/03/01 08:06:30;;;;;;;67.93;50.83;;;16.40;47.40;;;;;;4992989;28;90293;-73
2022/03/01 08:08:56;;;;;;;67.40;51.10;;;16.40;47.40;;;;;;4989768;28;89374;-73
2022/03/01 08:11:21;;;;;;;69.60;51.25;;;16.40;47.50;;;;;;4993044;28;90608;-73
2022/03/01 08:13:47;;;;;;;66.50;50.38;;;16.40;47.50;;;;;;4987645;28;89939;-73
2022/03/01 08:16:13;;;;;;;68.03;51.05;;;16.40;47.60;;;;;;4995757;28;89660;-73
2022/03/01 08:18:38;;;;;;;67.85;50.90;;;16.40;47.60;;;;;;4984424;28;89896;-73
2022/03/01 08:21:06;;;;;;;67.80;50.65;;;16.30;47.60;;;;;;4992442;28;91499;-73
2022/03/01 08:23:32;;;;;;;67.75;50.75;;;16.30;47.70;;;;;;4988460;28;90772;-73
2022/03/01 08:25:58;;;;;;;68.72;51.47;;;16.30;47.60;;;;;;4993636;28;91011;-73
2022/03/01 08:28:24;;;;;;;69.20;51.17;;;16.30;47.70;;;;;;4988161;28;93419;-73
2022/03/01 08:30:51;;;;;;;66.70;50.67;;;16.30;47.60;;;;;;4993298;28;89592;-74
2022/03/01 08:33:18;;;;;;;69.05;51.30;;;16.30;47.70;;;;;;4984789;28;89843;-73
2022/03/01 08:35:44;;;;;;;69.07;51.15;;;16.30;47.80;;;;;;4991167;28;89582;-74
2022/03/01 08:38:10;;;;;;;67.43;50.95;;;16.30;47.80;;;;;;4992682;28;92724;-73
2022/03/01 08:40:38;;;;;;;67.53;51.30;;;16.20;47.80;;;;;;4995299;28;92735;-73
2022/03/01 08:43:05;;;;;;;68.47;50.95;;;16.20;47.80;;;;;;4988332;28;90510;-73
2022/03/01 08:45:32;;;;;;;68.60;51.55;;;16.20;47.80;;;;;;4991756;28;90703;-73
2022/03/01 08:47:58;;;;;;;68.43;51.55;;;16.20;47.90;;;;;;4990027;28;90630;-73
2022/03/01 08:50:24;;;;;;;66.75;50.47;;;16.20;47.90;;;;;;4993046;28;90195;-73
2022/03/01 08:52:50;;;;;;;67.38;50.75;;;16.20;47.90;;;;;;4989717;28;91362;-74
2022/03/01 08:55:16;;;;;;;68.68;51.60;;;16.20;47.90;;;;;;4994266;28;89846;-75
2022/03/01 08:57:42;;;;;;;67.88;51.17;;;16.10;48.00;;;;;;4996253;28;90083;-75
2022/03/01 09:00:10;;;;;;;67.57;51.08;;;16.20;48.00;;;;;;4982637;28;89597;-75
2022/03/01 09:02:36;;;;;;;68.13;51.22;;;16.10;48.00;;;;;;4990931;28;92829;-78
2022/03/01 09:05:02;;;;;;;69.50;51.17;;;16.20;47.90;;;;;;4996014;28;91743;-78
2022/03/01 09:07:27;;;;;;;67.82;50.97;;;16.10;48.10;;;;;;4995610;28;89762;-78
2022/03/01 09:09:54;;;;;;;68.07;51.72;;;16.10;48.00;;;;;;4990686;28;91992;-78
2022/03/01 09:12:20;;;;;;;66.82;50.85;;;16.10;48.10;;;;;;4995192;28;91116;-78
2022/03/01 09:14:45;;;;;;;67.68;51.78;;;16.10;48.10;;;;;;4984365;28;90227;-78
2022/03/01 09:17:14;;;;;;;68.00;50.55;;;16.10;48.30;;;;;;4994785;28;89929;-77
2022/03/01 09:19:40;;;;;;;67.70;50.78;;;16.10;48.10;;;;;;4991986;28;92968;-77
2022/03/01 09:22:05;;;;;;;69.53;51.20;;;16.10;48.30;;;;;;4992639;28;90033;-77
2022/03/01 09:24:31;;;;;;;68.55;51.35;;;16.10;48.30;;;;;;4994833;28;89880;-77
2022/03/01 09:27:00;;;;;;;70.25;52.33;;;16.10;48.30;;;;;;4994644;28;89114;-77
2022/03/01 09:29:28;;;;;;;70.47;51.78;;;16.10;48.30;;;;;;4980954;28;91526;-77
2022/03/01 09:31:54;;;;;;;69.80;51.72;;;16.10;48.30;;;;;;4997454;28;90488;-77
2022/03/01 09:34:19;;;;;;;67.75;51.20;;;16.10;48.30;;;;;;4993486;28;91525;-77
2022/03/01 09:36:46;;;;;;;67.82;51.40;;;16.10;48.30;;;;;;4998242;28;90204;-77
2022/03/01 09:39:12;;;;;;;68.05;51.38;;;16.10;48.40;;;;;;4995428;28;91740;-77
2022/03/01 09:41:39;;;;;;;67.65;51.13;;;16.10;48.30;;;;;;4998883;28;89797;-77
2022/03/01 09:44:05;;;;;;;67.90;50.92;;;16.10;48.30;;;;;;4985195;28;89596;-79
2022/03/01 09:46:31;;;;;;;68.00;51.22;;;16.00;49.00;;;;;;4996483;28;90204;-77
2022/03/01 09:48:57;;;;;;;69.47;52.35;;;16.10;48.50;;;;;;4988290;28;90045;-77
2022/03/01 09:51:24;;;;;;;67.55;50.83;;;16.00;48.40;;;;;;4991643;28;91122;-76
2022/03/01 09:53:51;;;;;;;69.07;51.72;;;16.10;48.50;;;;;;4987457;28;90349;-77
2022/03/01 09:56:18;;;;;;;71.40;51.80;;;16.00;48.50;;;;;;4995510;28;89711;-76
2022/03/01 09:58:48;;;;;;;67.40;50.92;;;16.00;48.50;;;;;;4996677;28;91458;-77
2022/03/01 10:01:16;;;;;;;68.10;51.35;;;16.10;48.60;;;;;;4998400;28;93496;-77
2022/03/01 10:03:48;;;;;;;70.90;51.88;;;16.00;48.40;;;;;;4992039;28;90510;-76
2022/03/01 10:06:14;;;;;;;;;;;16.10;48.60;;;;;;4998457;28;89883;-77
2022/03/01 10:08:39;;;;;;;68.00;51.60;;;16.10;48.60;;;;;;4993916;28;92131;-77
2022/03/01 10:11:05;;;;;;;69.20;51.50;;;16.00;48.60;;;;;;4995963;28;90043;-76
2022/03/01 10:13:36;;;;;;;69.50;51.75;;;16.00;48.50;;;;;;4994149;28;89584;-77
2022/03/01 10:16:06;;;;;;;71.80;52.22;;;16.00;48.50;;;;;;4997002;28;88790;-76
2022/03/01 10:18:34;;;;;;;70.32;51.83;;;16.00;48.60;;;;;;4991621;28;91030;-76
2022/03/01 10:21:09;;;;;;;68.18;51.38;;;16.10;48.60;;;;;;4993919;28;89671;-76
2022/03/01 10:23:41;;;;;;;68.35;51.20;;;16.00;48.50;;;;;;5013071;27;90802;-76
2022/03/01 10:26:19;;;;;;;71.32;52.38;;;16.00;48.60;;;;;;4994205;28;90559;-76
2022/03/01 10:28:45;;;;;;;70.15;51.80;;;16.10;48.60;;;;;;4993118;28;89731;-76
2022/03/01 10:31:15;;;;;;;71.60;52.63;;;16.10;48.60;;;;;;4993069;28;91299;-76
2022/03/01 10:33:56;;;;;;;68.47;51.53;;;16.10;48.60;;;;;;4994665;28;90160;-75
2022/03/01 10:36:23;;;;;;;70.90;51.78;;;16.10;48.70;;;;;;4993364;28;89523;-75
2022/03/01 10:39:10;;;;;;;69.05;51.53;;;16.10;48.60;;;;;;4989528;28;90574;-75
2022/03/01 10:41:38;;;;;;;70.85;52.80;;;16.10;48.70;;;;;;4990379;28;89106;-75
2022/03/01 10:44:05;;;;;;;69.75;51.80;;;16.10;48.70;;;;;;4986076;28;95569;-75
2022/03/01 10:46:39;;;;;;;71.82;52.03;;;16.10;48.70;;;;;;4989030;28;90308;-75
2022/03/01 10:49:10;;;;;;;69.45;52.20;;;16.10;48.70;;;;;;4990666;28;90853;-75
2022/03/01 10:51:54;;;;;;;74.70;52.28;;;16.10;48.70;;;;;;4998346;28;94755;-75
2022/03/01 10:54:40;;;;;;;69.45;52.03;;;16.10;48.70;;;;;;4992880;28;89865;-75
2022/03/01 10:57:08;;;;;;;71.72;52.53;;;16.10;48.80;;;;;;4992416;28;89826;-75
2022/03/01 10:59:35;;;;;;;70.97;52.33;;;16.10;48.60;;;;;;4986985;28;91930;-74
2022/03/01 11:02:02;;;;;;;71.82;52.95;;;16.10;48.70;;;;;;4985885;28;90032;-74
2022/03/01 11:04:29;;;;;;;70.82;52.15;;;16.20;48.70;;;;;;4992684;28;90749;-74
2022/03/01 11:06:58;;;;;;;70.70;52.25;;;16.10;48.70;;;;;;4998756;28;89148;-74
2022/03/01 11:09:25;;;;;;;69.15;51.78;;;16.20;48.70;;;;;;4992960;28;90759;-74
2022/03/01 11:11:52;;;;;;;70.35;52.13;;;16.20;48.70;;;;;;4994091;28;90699;-74
2022/03/01 11:14:44;;;;;;;73.45;52.50;;;16.20;48.70;;;;;;4996693;28;97130;-74
2022/03/01 11:17:54;;;;;;;71.38;51.90;;;16.20;48.70;;;;;;4987299;28;90173;-73
2022/03/01 11:20:30;;;;;;;69.30;51.70;;;16.20;48.80;;;;;;4997341;28;92297;-73
2022/03/01 11:23:09;;;;;;;70.32;51.63;;;16.20;48.90;;;;;;4995928;28;89964;-74
2022/03/01 11:25:40;;;;;;;70.85;51.63;;;16.30;48.80;;;;;;5000092;28;90128;-72
2022/03/01 11:28:10;;;;;;;69.80;51.95;;;16.30;48.90;;;;;;5004357;28;90480;-74
2022/03/01 11:30:42;;;;;;;73.20;52.20;;;16.30;48.90;;;;;;5008616;28;92657;-72
2022/03/01 11:33:09;;;;;;;71.00;52.78;;;16.30;48.90;;;;;;5004276;28;90047;-71
2022/03/01 11:35:37;;;;;;;70.20;51.67;;;16.30;48.90;;;;;;5005900;28;89715;-73
2022/03/01 11:38:08;;;;;;;72.05;52.53;;;16.30;48.90;;;;;;5010962;28;89435;-71
2022/03/01 11:40:36;;;;;;;;;;;16.40;48.90;;;;;;5009045;28;90761;-71
2022/03/01 11:43:09;;;;;;;70.40;52.25;;;16.40;48.90;;;;;;5011028;28;89895;-71
2022/03/01 11:45:35;;;;;;;70.63;51.90;;;16.40;48.80;;;;;;5006783;28;89788;-72
2022/03/01 11:48:06;;;;;;;72.57;52.25;;;16.40;48.80;;;;;;5007540;28;89833;-71
2022/03/01 11:50:32;;;;;;;76.10;52.50;;;16.40;48.70;;;;;;4988137;28;89941;-71
2022/03/01 11:53:07;;;;;;;77.95;52.65;;;16.50;49.60;;;;;;4995990;28;91708;-71
2022/03/01 11:55:44;;;;;;;76.75;53.10;;;16.50;50.10;;;;;;4994867;28;90440;-72
2022/03/01 11:58:11;;;;;;;80.05;52.75;;;16.50;50.70;;;;;;5003116;28;89669;-74
2022/03/01 12:00:40;;;;;;;75.65;52.50;;;16.60;51.00;;;;;;4998634;28;91747;-74
2022/03/01 12:03:20;;;;;;;74.03;52.63;;;16.60;50.90;;;;;;5003305;28;90045;-73
2022/03/01 12:05:48;;;;;;;75.82;53.05;;;16.70;50.90;;;;;;5007004;28;90694;-73
2022/03/01 12:08:16;;;;;;;74.95;52.95;;;16.70;50.90;;;;;;5022220;27;89506;-73
2022/03/01 12:10:57;;;;;;;76.05;52.72;;;16.70;50.80;;;;;;4996791;28;90489;-73
2022/03/01 12:13:34;;;;;;;77.53;53.17;;;16.70;50.80;;;;;;4999580;28;89902;-74
2022/03/01 12:16:00;;;;;;;77.30;53.20;;;16.80;50.90;;;;;;5001147;28;89942;-74
2022/03/01 12:18:33;;;;;;;75.75;52.85;;;16.80;50.80;;;;;;5002716;28;89907;-75
2022/03/01 12:21:11;;;;;;;74.90;52.47;;;16.80;50.90;;;;;;4988497;28;90537;-73
2022/03/01 12:23:39;;;;;;;76.05;52.97;;;16.90;51.30;;;;;;4999891;28;91992;-73
2022/03/01 12:26:08;;;;;;;75.30;52.40;;;16.80;51.00;;;;;;5000170;28;90099;-73
2022/03/01 12:28:38;;;;;;;77.72;52.92;;;16.90;50.90;;;;;;5005964;28;91030;-73
2022/03/01 12:31:09;;;;;;;77.78;53.25;;;16.90;50.80;;;;;;5000443;28;92064;-73